Pagadder — J8B3995 — position and weather

sailwx.info

Track history (hours):
 
Tides and Currents Weather Stations Pressure Air Temp Water Temp Dewpoint Dewpoint Depression Visibility Wind Speed Wind Dir Waves Ship Positions

Pagadder

Last reported at 2014-May-27 06:46 UTC. Time now 2014-Jul-22 15:03 UTC.
Position S 21°38' E 115°02'.
Warning: this ship's position is 56 days out of date.

Length 90 m; draft 2.6 m.

Type: Other ship. MMSI: 377594000.

Date/timePositionNaut miles runAvg speedWind from/ knotsBaromVisibWave heightAir tempDewpointWater temp
2014-May-27 06:46S 21°38' E 115°02'0 0.0
2014-May-27 06:31S 21°38' E 115°02'0 0.1
2014-May-27 05:58S 21°38' E 115°02'0 0.0
2014-May-27 05:25S 21°38' E 115°02'0 0.0
2014-May-27 04:31S 21°38' E 115°02'0 0.0
2014-May-27 04:04S 21°38' E 115°02'0 0.0
2014-May-27 03:31S 21°38' E 115°02'0 0.0
2014-May-27 00:55S 21°38' E 115°02'0 0.0
2014-May-27 00:34S 21°38' E 115°02'0 0.1
2014-May-27 00:04S 21°38' E 115°02'0 0.9
2014-May-26 23:33S 21°38' E 115°02'3 6.7
2014-May-26 23:04S 21°35' E 115°04'4 6.8
2014-May-26 22:33S 21°32' E 115°06'3 5.5
2014-May-26 22:04S 21°30' E 115°07'2 4.8
2014-May-26 21:33S 21°32' E 115°06'8 5.1
2014-May-26 20:03S 21°38' E 115°01'3 5.3
2014-May-26 19:33S 21°36' E 115°03'5 9.4
2014-May-26 19:04S 21°33' E 115°06'3 6.2
2014-May-26 18:33S 21°30' E 115°07'3 6.4
2014-May-26 18:04S 21°33' E 115°06'4 8.1
2014-May-26 17:33S 21°36' E 115°03'3 6.5
2014-May-26 17:04S 21°38' E 115°01'0 0.1
2014-May-26 16:25S 21°38' E 115°01'1 2.0
2014-May-26 16:04S 21°38' E 115°01'2 2.5
2014-May-26 15:25S 21°36' E 115°02'2 1.8
2014-May-26 14:33S 21°35' E 115°03'4 7.9
2014-May-26 14:04S 21°32' E 115°06'3 5.6
2014-May-26 13:33S 21°30' E 115°07'3 6.0
2014-May-26 13:04S 21°32' E 115°06'4 8.0
2014-May-26 12:34S 21°36' E 115°03'3 6.1
2014-May-26 12:04S 21°38' E 115°01'0 0.9
2014-May-26 11:33S 21°38' E 115°01'0 0.1
2014-May-26 11:03S 21°38' E 115°01'1 2.5
2014-May-26 10:33S 21°37' E 115°02'2 5.1
2014-May-26 10:04S 21°35' E 115°04'3 5.1
2014-May-26 09:33S 21°33' E 115°05'3 5.4
2014-May-26 09:04S 21°31' E 115°07'1 2.3
2014-May-26 08:29S 21°30' E 115°07'0 0.0
2014-May-26 07:56S 21°30' E 115°07'0 0.0
2014-May-26 07:32S 21°30' E 115°07'0 0.1
2014-May-26 07:02S 21°30' E 115°07'0 0.0
2014-May-26 06:32S 21°30' E 115°07'0 0.1
2014-May-26 06:02S 21°30' E 115°07'0 0.0
2014-May-26 05:02S 21°30' E 115°07'0 0.0
2014-May-26 04:32S 21°30' E 115°07'0 0.0
2014-May-26 03:56S 21°30' E 115°07'0 0.1
2014-May-26 03:32S 21°30' E 115°07'0 0.0
2014-May-26 02:59S 21°30' E 115°07'0 0.2
2014-May-26 02:32S 21°30' E 115°07'2 3.4
2014-May-26 02:04S 21°31' E 115°07'4 7.7
2014-May-26 01:33S 21°35' E 115°04'4 7.7
2014-May-26 01:04S 21°37' E 115°02'1 1.7
2014-May-26 00:31S 21°38' E 115°01'0 0.0
2014-May-26 00:01S 21°38' E 115°01'0 0.0
2014-May-25 23:31S 21°38' E 115°01'0 0.0
2014-May-25 23:16S 21°38' E 115°01'2 2.8
2014-May-25 22:34S 21°37' E 115°02'8 8.1
2014-May-25 21:33S 21°30' E 115°07'5 4.6
2014-May-25 20:33S 21°34' E 115°05'6 5.0
2014-May-25 19:27S 21°38' E 115°01'0 0.0
2014-May-25 18:33S 21°38' E 115°01'2 1.5
2014-May-25 17:33S 21°37' E 115°02'8 7.9
2014-May-25 16:33S 21°30' E 115°07'3 2.5
2014-May-25 15:34S 21°33' E 115°06'7 7.1
2014-May-25 14:33S 21°38' E 115°01'0 0.2
2014-May-25 13:31S 21°38' E 115°01'5 5.3
2014-May-25 12:33S 21°34' E 115°05'5 5.1
2014-May-25 11:33S 21°30' E 115°07'7 7.4
2014-May-25 10:33S 21°36' E 115°03'3 2.7
2014-May-25 09:32S 21°38' E 115°01'4 4.0
2014-May-25 08:33S 21°35' E 115°04'6 5.7
2014-May-25 07:33S 21°30' E 115°07'8 7.8
2014-May-25 06:33S 21°37' E 115°02'2 1.5
2014-May-25 05:28S 21°38' E 115°01'3 3.4
2014-May-25 04:33S 21°36' E 115°03'7 7.2
2014-May-25 03:33S 21°30' E 115°07'6 6.3
2014-May-25 02:33S 21°35' E 115°04'4 3.9
2014-May-25 01:32S 21°38' E 115°01'7 6.7
2014-May-25 00:33S 21°33' E 115°05'2 1.9
2014-May-24 23:33S 21°31' E 115°06'8 8.2
2014-May-24 22:34S 21°38' E 115°01'0 0.2
2014-May-24 21:31S 21°38' E 115°01'0 0.5
2014-May-24 20:33S 21°38' E 115°01'7 7.0
2014-May-24 19:33S 21°32' E 115°06'1 0.6
2014-May-24 18:33S 21°32' E 115°06'8 7.9
2014-May-24 17:33S 21°38' E 115°01'0 0.1
2014-May-24 16:34S 21°38' E 115°01'0 0.0
2014-May-24 15:31S 21°38' E 115°01'8 4.2
2014-May-24 13:34S 21°31' E 115°06'2 2.4
2014-May-24 12:33S 21°34' E 115°05'6 5.8
2014-May-24 11:32S 21°38' E 115°01'0 0.0
2014-May-24 10:32S 21°38' E 115°01'0 0.0
2014-May-24 09:32S 21°38' E 115°01'2 1.9
2014-May-24 08:34S 21°37' E 115°02'8 8.1
2014-May-24 07:34S 21°30' E 115°07'5 4.8
2014-May-24 06:33S 21°34' E 115°05'5 4.9
2014-May-24 05:31S 21°38' E 115°01'0 0.0
2014-May-24 04:28S 21°38' E 115°01'2 2.1
2014-May-24 03:33S 21°36' E 115°02'7 7.4
2014-May-24 02:33S 21°30' E 115°07'4 4.3
2014-May-24 01:33S 21°34' E 115°05'5 4.9
2014-May-24 00:31S 21°38' E 115°01'1 0.7
2014-May-23 23:33S 21°37' E 115°01'7 6.9
2014-May-23 22:33S 21°32' E 115°06'1 0.6
2014-May-23 21:33S 21°32' E 115°06'8 7.7
2014-May-23 20:33S 21°38' E 115°01'1 0.6
2014-May-23 19:33S 21°37' E 115°02'8 7.8
2014-May-23 18:33S 21°31' E 115°07'0 0.2
2014-May-23 17:34S 21°31' E 115°07'8 8.1
2014-May-23 16:34S 21°37' E 115°02'1 0.7
2014-May-23 15:27S 21°38' E 115°01'0 0.1
2014-May-23 14:28S 21°38' E 115°01'7 7.3
2014-May-23 13:33S 21°33' E 115°06'0 0.4
2014-May-23 12:33S 21°32' E 115°06'7 6.9
2014-May-23 11:33S 21°38' E 115°01'0 0.3
2014-May-23 10:32S 21°38' E 115°01'0 0.0
2014-May-23 09:26S 21°38' E 115°01'0 0.0
2014-May-23 08:29S 21°38' E 115°01'3 3.3
2014-May-23 07:33S 21°36' E 115°03'7 6.9
2014-May-23 06:33S 21°30' E 115°07'3 2.7
2014-May-23 05:33S 21°32' E 115°06'7 7.4
2014-May-23 04:33S 21°38' E 115°01'0 0.2
2014-May-23 03:30S 21°38' E 115°01'7 6.9
2014-May-23 02:33S 21°33' E 115°06'0 0.2
2014-May-23 00:33S 21°32' E 115°06'7 6.8
2014-May-22 23:33S 21°38' E 115°01'0 0.1
2014-May-22 22:28S 21°38' E 115°01'0 0.0
2014-May-22 21:31S 21°38' E 115°01'2 2.1
2014-May-22 20:33S 21°36' E 115°03'6 6.5
2014-May-22 19:33S 21°31' E 115°07'1 1.4
2014-May-22 18:33S 21°30' E 115°07'9 8.6
2014-May-22 17:33S 21°37' E 115°02'1 1.1
2014-May-22 16:28S 21°38' E 115°01'2 1.8
2014-May-22 15:33S 21°37' E 115°02'6 5.7
2014-May-22 14:33S 21°32' E 115°06'0 0.2
2014-May-22 13:33S 21°32' E 115°06'7 7.2
2014-May-22 12:33S 21°38' E 115°01'0 0.1
2014-May-22 11:33S 21°38' E 115°01'2 2.0
2014-May-22 10:33S 21°36' E 115°02'0 0.0
2014-May-22 09:30S 21°36' E 115°02'1 0.6
2014-May-22 08:33S 21°36' E 115°03'8 8.0
2014-May-22 07:34S 21°29' E 115°07'2 2.4
2014-May-22 06:37S 21°31' E 115°06'8 7.2
2014-May-22 05:33S 21°37' E 115°02'1 0.5
2014-May-22 04:26S 21°38' E 115°01'1 0.7
2014-May-22 03:33S 21°37' E 115°02'9 8.6
2014-May-22 02:33S 21°30' E 115°07'0 0.4
2014-May-22 01:33S 21°31' E 115°07'8 7.6
2014-May-22 00:33S 21°37' E 115°02'1 1.5
2014-May-21 23:45S 21°38' E 115°01'1 1.0
2014-May-21 22:32S 21°37' E 115°02'7 7.6
2014-May-21 21:33S 21°31' E 115°07'2 1.8
2014-May-21 20:33S 21°33' E 115°06'7 6.6
2014-May-21 19:31S 21°38' E 115°01'0 0.0
2014-May-21 18:31S 21°38' E 115°01'3 2.8
2014-May-21 17:33S 21°36' E 115°03'8 7.6
2014-May-21 16:33S 21°29' E 115°07'6 6.2
2014-May-21 15:33S 21°35' E 115°04'4 4.2
2014-May-21 14:31S 21°38' E 115°01'6 3.2
2014-May-21 12:35S 21°33' E 115°06'4 3.8
2014-May-21 11:28S 21°29' E 115°08'6 6.5
2014-May-21 10:33S 21°34' E 115°04'4 4.3
2014-May-21 09:30S 21°38' E 115°01'4 4.6
2014-May-21 08:33S 21°35' E 115°04'6 5.6
2014-May-21 07:33S 21°29' E 115°07'8 7.6
2014-May-21 06:33S 21°36' E 115°03'2 2.3
2014-May-21 05:33S 21°38' E 115°01'0 0.0
2014-May-21 04:30S 21°38' E 115°01'0 0.0
2014-May-21 03:33S 21°38' E 115°01'7 7.2
2014-May-21 02:33S 21°32' E 115°06'3 3.3
2014-May-21 01:32S 21°29' E 115°07'6 6.3
2014-May-21 00:33S 21°35' E 115°04'5 4.6
2014-May-20 23:32S 21°38' E 115°01'0 0.1
2014-May-20 22:32S 21°38' E 115°01'0 0.0
2014-May-20 21:32S 21°38' E 115°01'0 0.0
2014-May-20 20:32S 21°38' E 115°01'0 0.0
2014-May-20 19:20S 21°38' E 115°01'0 0.0
2014-May-20 18:29S 21°38' E 115°01'0 0.0
2014-May-20 17:32S 21°38' E 115°01'0 0.0
2014-May-20 16:32S 21°38' E 115°01'0 0.0
2014-May-20 15:32S 21°38' E 115°01'0 0.0
2014-May-20 14:32S 21°38' E 115°01'0 0.0
2014-May-20 13:23S 21°38' E 115°01'0 0.1
2014-May-20 12:26S 21°38' E 115°01'0 0.2
2014-May-20 11:33S 21°38' E 115°01'1 0.6
2014-May-20 10:33S 21°38' E 115°01'7 6.8
2014-May-20 09:33S 21°32' E 115°06'3 3.0
2014-May-20 08:33S 21°29' E 115°07'5 4.7
2014-May-20 07:33S 21°34' E 115°05'5 5.3
2014-May-20 06:33S 21°38' E 115°01'0 0.3
2014-May-20 05:33S 21°37' E 115°01'6 6.3
2014-May-20 04:33S 21°33' E 115°06'1 1.5
2014-May-20 03:33S 21°32' E 115°06'8 7.6
2014-May-20 02:33S 21°37' E 115°01'0 0.3
2014-May-20 01:32S 21°38' E 115°01'0 0.0
2014-May-20 00:29S 21°38' E 115°01'8 8.3
2014-May-19 23:33S 21°32' E 115°06'2 1.6
2014-May-19 22:33S 21°33' E 115°06'6 5.6
2014-May-19 21:28S 21°38' E 115°01'0 0.5
2014-May-19 20:33S 21°37' E 115°02'9 8.8
2014-May-19 19:33S 21°30' E 115°07'0 0.5
2014-May-19 18:33S 21°31' E 115°07'7 7.4
2014-May-19 17:34S 21°36' E 115°02'1 0.6
2014-May-19 15:30S 21°38' E 115°02'7 6.9
2014-May-19 14:33S 21°32' E 115°06'3 3.2
2014-May-19 13:33S 21°29' E 115°07'5 5.4
2014-May-19 12:33S 21°34' E 115°05'5 4.6
2014-May-19 11:33S 21°38' E 115°01'4 4.3
2014-May-19 10:33S 21°35' E 115°04'6 5.7
2014-May-19 09:32S 21°29' E 115°07'5 4.8
2014-May-19 08:33S 21°34' E 115°05'5 5.1
2014-May-19 07:31S 21°38' E 115°01'0 0.0
2014-May-19 06:31S 21°38' E 115°01'1 1.5
2014-May-19 05:33S 21°37' E 115°02'8 8.4
2014-May-19 04:33S 21°29' E 115°07'0 0.3
2014-May-19 03:32S 21°29' E 115°07'5 5.4
2014-May-19 02:33S 21°34' E 115°05'5 4.5
2014-May-19 01:29S 21°38' E 115°01'0 0.4
2014-May-19 00:33S 21°38' E 115°02'5 5.5
2014-May-18 23:33S 21°33' E 115°05'5 4.2
2014-May-18 22:29S 21°29' E 115°07'5 4.9
2014-May-18 21:33S 21°33' E 115°05'6 5.7
2014-May-18 20:33S 21°38' E 115°01'1 1.1
2014-May-18 19:32S 21°37' E 115°02'7 6.9
2014-May-18 18:33S 21°31' E 115°06'2 2.3
2014-May-18 17:33S 21°29' E 115°07'2 1.9
2014-May-18 16:33S 21°31' E 115°07'7 7.5
2014-May-18 15:33S 21°37' E 115°02'1 0.7
2014-May-18 14:29S 21°37' E 115°01'0 0.1
2014-May-18 13:33S 21°38' E 115°01'8 8.2
2014-May-18 12:33S 21°31' E 115°07'1 0.6
2014-May-18 11:34S 21°30' E 115°07'8 7.7
2014-May-18 10:33S 21°37' E 115°02'1 1.0
2014-May-18 09:32S 21°37' E 115°01'0 0.0
2014-May-18 08:32S 21°37' E 115°01'0 0.0
2014-May-18 07:26S 21°37' E 115°01'5 5.8
2014-May-18 06:33S 21°34' E 115°05'5 5.0
2014-May-18 05:34S 21°29' E 115°07'6 6.4
2014-May-18 04:34S 21°35' E 115°04'4 3.3
2014-May-18 03:27S 21°37' E 115°01'0 0.0
2014-May-18 02:33S 21°37' E 115°01'3 2.9
2014-May-18 01:33S 21°35' E 115°03'7 7.0
2014-May-18 00:33S 21°29' E 115°07'5 5.3
2014-May-17 23:33S 21°34' E 115°05'5 4.7
2014-May-17 22:32S 21°37' E 115°01'8 7.7
2014-May-17 21:33S 21°32' E 115°06'0 0.3
2014-May-17 20:33S 21°32' E 115°06'7 7.1
2014-May-17 19:32S 21°37' E 115°01'0 0.1
2014-May-17 18:26S 21°37' E 115°01'7 8.0
2014-May-17 17:33S 21°32' E 115°06'2 1.4
2014-May-17 16:29S 21°31' E 115°07'1 1.1
2014-May-17 15:33S 21°32' E 115°06'8 3.5
2014-May-17 13:23S 21°37' E 115°01'4 4.3
2014-May-17 12:33S 21°35' E 115°04'6 6.2
2014-May-17 11:33S 21°29' E 115°07'7 7.1
2014-May-17 10:34S 21°36' E 115°03'3 2.6
2014-May-17 09:32S 21°37' E 115°01'1 0.7
2014-May-17 08:33S 21°37' E 115°01'1 1.3
2014-May-17 07:31S 21°36' E 115°02'  
Track history (hours):
 
Tides and Currents Weather Stations Pressure Air Temp Water Temp Dewpoint Dewpoint Depression Visibility Wind Speed Wind Dir Waves Ship Positions

Pagadder

Last reported at 2014-May-27 06:46 UTC. Time now 2014-Jul-22 15:03 UTC.
Position S 21°38' E 115°02'.
Warning: this ship's position is 56 days out of date.

Length 90 m; draft 2.6 m.

Type: Other ship. MMSI: 377594000.

Date/timePositionNaut miles runAvg speedWind from/ knotsBaromVisibWave heightAir tempDewpointWater temp
2014-May-27 06:46S 21°38' E 115°02'0 0.0
2014-May-27 06:31S 21°38' E 115°02'0 0.1
2014-May-27 05:58S 21°38' E 115°02'0 0.0
2014-May-27 05:25S 21°38' E 115°02'0 0.0
2014-May-27 04:31S 21°38' E 115°02'0 0.0
2014-May-27 04:04S 21°38' E 115°02'0 0.0
2014-May-27 03:31S 21°38' E 115°02'0 0.0
2014-May-27 00:55S 21°38' E 115°02'0 0.0
2014-May-27 00:34S 21°38' E 115°02'0 0.1
2014-May-27 00:04S 21°38' E 115°02'0 0.9
2014-May-26 23:33S 21°38' E 115°02'3 6.7
2014-May-26 23:04S 21°35' E 115°04'4 6.8
2014-May-26 22:33S 21°32' E 115°06'3 5.5
2014-May-26 22:04S 21°30' E 115°07'2 4.8
2014-May-26 21:33S 21°32' E 115°06'8 5.1
2014-May-26 20:03S 21°38' E 115°01'3 5.3
2014-May-26 19:33S 21°36' E 115°03'5 9.4
2014-May-26 19:04S 21°33' E 115°06'3 6.2
2014-May-26 18:33S 21°30' E 115°07'3 6.4
2014-May-26 18:04S 21°33' E 115°06'4 8.1
2014-May-26 17:33S 21°36' E 115°03'3 6.5
2014-May-26 17:04S 21°38' E 115°01'0 0.1
2014-May-26 16:25S 21°38' E 115°01'1 2.0
2014-May-26 16:04S 21°38' E 115°01'2 2.5
2014-May-26 15:25S 21°36' E 115°02'2 1.8
2014-May-26 14:33S 21°35' E 115°03'4 7.9
2014-May-26 14:04S 21°32' E 115°06'3 5.6
2014-May-26 13:33S 21°30' E 115°07'3 6.0
2014-May-26 13:04S 21°32' E 115°06'4 8.0
2014-May-26 12:34S 21°36' E 115°03'3 6.1
2014-May-26 12:04S 21°38' E 115°01'0 0.9
2014-May-26 11:33S 21°38' E 115°01'0 0.1
2014-May-26 11:03S 21°38' E 115°01'1 2.5
2014-May-26 10:33S 21°37' E 115°02'2 5.1
2014-May-26 10:04S 21°35' E 115°04'3 5.1
2014-May-26 09:33S 21°33' E 115°05'3 5.4
2014-May-26 09:04S 21°31' E 115°07'1 2.3
2014-May-26 08:29S 21°30' E 115°07'0 0.0
2014-May-26 07:56S 21°30' E 115°07'0 0.0
2014-May-26 07:32S 21°30' E 115°07'0 0.1
2014-May-26 07:02S 21°30' E 115°07'0 0.0
2014-May-26 06:32S 21°30' E 115°07'0 0.1
2014-May-26 06:02S 21°30' E 115°07'0 0.0
2014-May-26 05:02S 21°30' E 115°07'0 0.0
2014-May-26 04:32S 21°30' E 115°07'0 0.0
2014-May-26 03:56S 21°30' E 115°07'0 0.1
2014-May-26 03:32S 21°30' E 115°07'0 0.0
2014-May-26 02:59S 21°30' E 115°07'0 0.2
2014-May-26 02:32S 21°30' E 115°07'2 3.4
2014-May-26 02:04S 21°31' E 115°07'4 7.7
2014-May-26 01:33S 21°35' E 115°04'4 7.7
2014-May-26 01:04S 21°37' E 115°02'1 1.7
2014-May-26 00:31S 21°38' E 115°01'0 0.0
2014-May-26 00:01S 21°38' E 115°01'0 0.0
2014-May-25 23:31S 21°38' E 115°01'0 0.0
2014-May-25 23:16S 21°38' E 115°01'2 2.8
2014-May-25 22:34S 21°37' E 115°02'8 8.1
2014-May-25 21:33S 21°30' E 115°07'5 4.6
2014-May-25 20:33S 21°34' E 115°05'6 5.0
2014-May-25 19:27S 21°38' E 115°01'0 0.0
2014-May-25 18:33S 21°38' E 115°01'2 1.5
2014-May-25 17:33S 21°37' E 115°02'8 7.9
2014-May-25 16:33S 21°30' E 115°07'3 2.5
2014-May-25 15:34S 21°33' E 115°06'7 7.1
2014-May-25 14:33S 21°38' E 115°01'0 0.2
2014-May-25 13:31S 21°38' E 115°01'5 5.3
2014-May-25 12:33S 21°34' E 115°05'5 5.1
2014-May-25 11:33S 21°30' E 115°07'7 7.4
2014-May-25 10:33S 21°36' E 115°03'3 2.7
2014-May-25 09:32S 21°38' E 115°01'4 4.0
2014-May-25 08:33S 21°35' E 115°04'6 5.7
2014-May-25 07:33S 21°30' E 115°07'8 7.8
2014-May-25 06:33S 21°37' E 115°02'2 1.5
2014-May-25 05:28S 21°38' E 115°01'3 3.4
2014-May-25 04:33S 21°36' E 115°03'7 7.2
2014-May-25 03:33S 21°30' E 115°07'6 6.3
2014-May-25 02:33S 21°35' E 115°04'4 3.9
2014-May-25 01:32S 21°38' E 115°01'7 6.7
2014-May-25 00:33S 21°33' E 115°05'2 1.9
2014-May-24 23:33S 21°31' E 115°06'8 8.2
2014-May-24 22:34S 21°38' E 115°01'0 0.2
2014-May-24 21:31S 21°38' E 115°01'0 0.5
2014-May-24 20:33S 21°38' E 115°01'7 7.0
2014-May-24 19:33S 21°32' E 115°06'1 0.6
2014-May-24 18:33S 21°32' E 115°06'8 7.9
2014-May-24 17:33S 21°38' E 115°01'0 0.1
2014-May-24 16:34S 21°38' E 115°01'0 0.0
2014-May-24 15:31S 21°38' E 115°01'8 4.2
2014-May-24 13:34S 21°31' E 115°06'2 2.4
2014-May-24 12:33S 21°34' E 115°05'6 5.8
2014-May-24 11:32S 21°38' E 115°01'0 0.0
2014-May-24 10:32S 21°38' E 115°01'0 0.0
2014-May-24 09:32S 21°38' E 115°01'2 1.9
2014-May-24 08:34S 21°37' E 115°02'8 8.1
2014-May-24 07:34S 21°30' E 115°07'5 4.8
2014-May-24 06:33S 21°34' E 115°05'5 4.9
2014-May-24 05:31S 21°38' E 115°01'0 0.0
2014-May-24 04:28S 21°38' E 115°01'2 2.1
2014-May-24 03:33S 21°36' E 115°02'7 7.4
2014-May-24 02:33S 21°30' E 115°07'4 4.3
2014-May-24 01:33S 21°34' E 115°05'5 4.9
2014-May-24 00:31S 21°38' E 115°01'1 0.7
2014-May-23 23:33S 21°37' E 115°01'7 6.9
2014-May-23 22:33S 21°32' E 115°06'1 0.6
2014-May-23 21:33S 21°32' E 115°06'8 7.7
2014-May-23 20:33S 21°38' E 115°01'1 0.6
2014-May-23 19:33S 21°37' E 115°02'8 7.8
2014-May-23 18:33S 21°31' E 115°07'0 0.2
2014-May-23 17:34S 21°31' E 115°07'8 8.1
2014-May-23 16:34S 21°37' E 115°02'1 0.7
2014-May-23 15:27S 21°38' E 115°01'0 0.1
2014-May-23 14:28S 21°38' E 115°01'7 7.3
2014-May-23 13:33S 21°33' E 115°06'0 0.4
2014-May-23 12:33S 21°32' E 115°06'7 6.9
2014-May-23 11:33S 21°38' E 115°01'0 0.3
2014-May-23 10:32S 21°38' E 115°01'0 0.0
2014-May-23 09:26S 21°38' E 115°01'0 0.0
2014-May-23 08:29S 21°38' E 115°01'3 3.3
2014-May-23 07:33S 21°36' E 115°03'7 6.9
2014-May-23 06:33S 21°30' E 115°07'3 2.7
2014-May-23 05:33S 21°32' E 115°06'7 7.4
2014-May-23 04:33S 21°38' E 115°01'0 0.2
2014-May-23 03:30S 21°38' E 115°01'7 6.9
2014-May-23 02:33S 21°33' E 115°06'0 0.2
2014-May-23 00:33S 21°32' E 115°06'7 6.8
2014-May-22 23:33S 21°38' E 115°01'0 0.1
2014-May-22 22:28S 21°38' E 115°01'0 0.0
2014-May-22 21:31S 21°38' E 115°01'2 2.1
2014-May-22 20:33S 21°36' E 115°03'6 6.5
2014-May-22 19:33S 21°31' E 115°07'1 1.4
2014-May-22 18:33S 21°30' E 115°07'9 8.6
2014-May-22 17:33S 21°37' E 115°02'1 1.1
2014-May-22 16:28S 21°38' E 115°01'2 1.8
2014-May-22 15:33S 21°37' E 115°02'6 5.7
2014-May-22 14:33S 21°32' E 115°06'0 0.2
2014-May-22 13:33S 21°32' E 115°06'7 7.2
2014-May-22 12:33S 21°38' E 115°01'0 0.1
2014-May-22 11:33S 21°38' E 115°01'2 2.0
2014-May-22 10:33S 21°36' E 115°02'0 0.0
2014-May-22 09:30S 21°36' E 115°02'1 0.6
2014-May-22 08:33S 21°36' E 115°03'8 8.0
2014-May-22 07:34S 21°29' E 115°07'2 2.4
2014-May-22 06:37S 21°31' E 115°06'8 7.2
2014-May-22 05:33S 21°37' E 115°02'1 0.5
2014-May-22 04:26S 21°38' E 115°01'1 0.7
2014-May-22 03:33S 21°37' E 115°02'9 8.6
2014-May-22 02:33S 21°30' E 115°07'0 0.4
2014-May-22 01:33S 21°31' E 115°07'8 7.6
2014-May-22 00:33S 21°37' E 115°02'1 1.5
2014-May-21 23:45S 21°38' E 115°01'1 1.0
2014-May-21 22:32S 21°37' E 115°02'7 7.6
2014-May-21 21:33S 21°31' E 115°07'2 1.8
2014-May-21 20:33S 21°33' E 115°06'7 6.6
2014-May-21 19:31S 21°38' E 115°01'0 0.0
2014-May-21 18:31S 21°38' E 115°01'3 2.8
2014-May-21 17:33S 21°36' E 115°03'8 7.6
2014-May-21 16:33S 21°29' E 115°07'6 6.2
2014-May-21 15:33S 21°35' E 115°04'4 4.2
2014-May-21 14:31S 21°38' E 115°01'6 3.2
2014-May-21 12:35S 21°33' E 115°06'4 3.8
2014-May-21 11:28S 21°29' E 115°08'6 6.5
2014-May-21 10:33S 21°34' E 115°04'4 4.3
2014-May-21 09:30S 21°38' E 115°01'4 4.6
2014-May-21 08:33S 21°35' E 115°04'6 5.6
2014-May-21 07:33S 21°29' E 115°07'8 7.6
2014-May-21 06:33S 21°36' E 115°03'2 2.3
2014-May-21 05:33S 21°38' E 115°01'0 0.0
2014-May-21 04:30S 21°38' E 115°01'0 0.0
2014-May-21 03:33S 21°38' E 115°01'7 7.2
2014-May-21 02:33S 21°32' E 115°06'3 3.3
2014-May-21 01:32S 21°29' E 115°07'6 6.3
2014-May-21 00:33S 21°35' E 115°04'5 4.6
2014-May-20 23:32S 21°38' E 115°01'0 0.1
2014-May-20 22:32S 21°38' E 115°01'0 0.0
2014-May-20 21:32S 21°38' E 115°01'0 0.0
2014-May-20 20:32S 21°38' E 115°01'0 0.0
2014-May-20 19:20S 21°38' E 115°01'0 0.0
2014-May-20 18:29S 21°38' E 115°01'0 0.0
2014-May-20 17:32S 21°38' E 115°01'0 0.0
2014-May-20 16:32S 21°38' E 115°01'0 0.0
2014-May-20 15:32S 21°38' E 115°01'0 0.0
2014-May-20 14:32S 21°38' E 115°01'0 0.0
2014-May-20 13:23S 21°38' E 115°01'0 0.1
2014-May-20 12:26S 21°38' E 115°01'0 0.2
2014-May-20 11:33S 21°38' E 115°01'1 0.6
2014-May-20 10:33S 21°38' E 115°01'7 6.8
2014-May-20 09:33S 21°32' E 115°06'3 3.0
2014-May-20 08:33S 21°29' E 115°07'5 4.7
2014-May-20 07:33S 21°34' E 115°05'5 5.3
2014-May-20 06:33S 21°38' E 115°01'0 0.3
2014-May-20 05:33S 21°37' E 115°01'6 6.3
2014-May-20 04:33S 21°33' E 115°06'1 1.5
2014-May-20 03:33S 21°32' E 115°06'8 7.6
2014-May-20 02:33S 21°37' E 115°01'0 0.3
2014-May-20 01:32S 21°38' E 115°01'0 0.0
2014-May-20 00:29S 21°38' E 115°01'8 8.3
2014-May-19 23:33S 21°32' E 115°06'2 1.6
2014-May-19 22:33S 21°33' E 115°06'6 5.6
2014-May-19 21:28S 21°38' E 115°01'0 0.5
2014-May-19 20:33S 21°37' E 115°02'9 8.8
2014-May-19 19:33S 21°30' E 115°07'0 0.5
2014-May-19 18:33S 21°31' E 115°07'7 7.4
2014-May-19 17:34S 21°36' E 115°02'1 0.6
2014-May-19 15:30S 21°38' E 115°02'7 6.9
2014-May-19 14:33S 21°32' E 115°06'3 3.2
2014-May-19 13:33S 21°29' E 115°07'5 5.4
2014-May-19 12:33S 21°34' E 115°05'5 4.6
2014-May-19 11:33S 21°38' E 115°01'4 4.3
2014-May-19 10:33S 21°35' E 115°04'6 5.7
2014-May-19 09:32S 21°29' E 115°07'5 4.8
2014-May-19 08:33S 21°34' E 115°05'5 5.1
2014-May-19 07:31S 21°38' E 115°01'0 0.0
2014-May-19 06:31S 21°38' E 115°01'1 1.5
2014-May-19 05:33S 21°37' E 115°02'8 8.4
2014-May-19 04:33S 21°29' E 115°07'0 0.3
2014-May-19 03:32S 21°29' E 115°07'5 5.4
2014-May-19 02:33S 21°34' E 115°05'5 4.5
2014-May-19 01:29S 21°38' E 115°01'0 0.4
2014-May-19 00:33S 21°38' E 115°02'5 5.5
2014-May-18 23:33S 21°33' E 115°05'5 4.2
2014-May-18 22:29S 21°29' E 115°07'5 4.9
2014-May-18 21:33S 21°33' E 115°05'6 5.7
2014-May-18 20:33S 21°38' E 115°01'1 1.1
2014-May-18 19:32S 21°37' E 115°02'7 6.9
2014-May-18 18:33S 21°31' E 115°06'2 2.3
2014-May-18 17:33S 21°29' E 115°07'2 1.9
2014-May-18 16:33S 21°31' E 115°07'7 7.5
2014-May-18 15:33S 21°37' E 115°02'1 0.7
2014-May-18 14:29S 21°37' E 115°01'0 0.1
2014-May-18 13:33S 21°38' E 115°01'8 8.2
2014-May-18 12:33S 21°31' E 115°07'1 0.6
2014-May-18 11:34S 21°30' E 115°07'8 7.7
2014-May-18 10:33S 21°37' E 115°02'1 1.0
2014-May-18 09:32S 21°37' E 115°01'0 0.0
2014-May-18 08:32S 21°37' E 115°01'0 0.0
2014-May-18 07:26S 21°37' E 115°01'5 5.8
2014-May-18 06:33S 21°34' E 115°05'5 5.0
2014-May-18 05:34S 21°29' E 115°07'6 6.4
2014-May-18 04:34S 21°35' E 115°04'4 3.3
2014-May-18 03:27S 21°37' E 115°01'0 0.0
2014-May-18 02:33S 21°37' E 115°01'3 2.9
2014-May-18 01:33S 21°35' E 115°03'7 7.0
2014-May-18 00:33S 21°29' E 115°07'5 5.3
2014-May-17 23:33S 21°34' E 115°05'5 4.7
2014-May-17 22:32S 21°37' E 115°01'8 7.7
2014-May-17 21:33S 21°32' E 115°06'0 0.3
2014-May-17 20:33S 21°32' E 115°06'7 7.1
2014-May-17 19:32S 21°37' E 115°01'0 0.1
2014-May-17 18:26S 21°37' E 115°01'7 8.0
2014-May-17 17:33S 21°32' E 115°06'2 1.4
2014-May-17 16:29S 21°31' E 115°07'1 1.1
2014-May-17 15:33S 21°32' E 115°06'8 3.5
2014-May-17 13:23S 21°37' E 115°01'4 4.3
2014-May-17 12:33S 21°35' E 115°04'6 6.2
2014-May-17 11:33S 21°29' E 115°07'7 7.1
2014-May-17 10:34S 21°36' E 115°03'3 2.6
2014-May-17 09:32S 21°37' E 115°01'1 0.7
2014-May-17 08:33S 21°37' E 115°01'1 1.3
2014-May-17 07:31S 21°36' E 115°02'  

Dump ship's entire track history